Time;durP1;ratioP1;P1;durP2;ratioP2;P2;SDS_P1;SDS_P2;PMS_P1;PMS_P2;Temp;Humidity;BMP_temperature;BMP_pressure;BME280_temperature;BME280_humidity;BME280_pressure;Samples;Min_cycle;Max_cycle;Signal;HPM_P1;HPM_P2
2021/09/26 00:02:02;;;;;;;;;9.00;8.00;;;;;26.21;42.17;101203.91;5063096;28;46832;-64
2021/09/26 00:04:27;;;;;;;;;8.25;7.75;;;;;26.23;42.23;101199.19;5063181;28;45213;-65
2021/09/26 00:06:53;;;;;;;;;9.25;8.75;;;;;26.17;42.12;101187.50;5065443;28;45648;-65
2021/09/26 00:09:18;;;;;;;;;9.00;9.00;;;;;26.23;42.23;101191.19;5073332;28;45280;-65
2021/09/26 00:11:43;;;;;;;;;9.00;9.00;;;;;26.24;41.91;101187.50;5060816;28;45315;-65
2021/09/26 00:14:09;;;;;;;;;7.25;7.25;;;;;26.23;42.14;101174.38;5058276;28;45445;-65
2021/09/26 00:16:35;;;;;;;;;7.50;7.00;;;;;26.23;42.30;101174.38;5062370;28;45750;-65
2021/09/26 00:19:00;;;;;;;;;9.00;9.00;;;;;26.23;42.27;101174.38;5061020;28;45567;-65
2021/09/26 00:21:26;;;;;;;;;8.75;7.50;;;;;26.22;41.87;101175.41;5060687;28;46034;-65
2021/09/26 00:23:53;;;;;;;;;9.75;9.00;;;;;26.15;42.42;101164.72;5060903;28;45335;-65
2021/09/26 00:26:19;;;;;;;;;9.00;9.00;;;;;26.22;42.46;101176.22;5058244;28;45299;-65
2021/09/26 00:28:44;;;;;;;;;11.75;10.50;;;;;26.20;42.31;101175.59;5060640;27;45284;-65
2021/09/26 00:31:10;;;;;;;;;9.50;9.50;;;;;26.22;42.20;101165.56;5060507;28;47228;-65
2021/09/26 00:33:35;;;;;;;;;7.75;7.75;;;;;26.10;42.04;101149.28;5060525;28;45350;-65
2021/09/26 00:36:00;;;;;;;;;8.50;8.00;;;;;26.24;42.18;101170.66;5060899;28;45707;-65
2021/09/26 00:38:26;;;;;;;;;8.75;8.75;;;;;26.24;42.15;101160.00;5059296;28;45430;-66
2021/09/26 00:40:51;;;;;;;;;8.75;8.75;;;;;26.24;42.47;101162.69;5062452;27;46085;-66
2021/09/26 00:43:18;;;;;;;;;11.25;11.25;;;;;26.24;42.03;101155.50;5063773;28;45395;-65
2021/09/26 00:45:44;;;;;;;;;9.00;8.50;;;;;26.24;42.23;101160.84;5067239;28;45551;-65
2021/09/26 00:48:09;;;;;;;;;8.25;8.25;;;;;26.25;42.15;101157.16;5076566;27;45572;-65
2021/09/26 00:50:35;;;;;;;;;10.75;9.00;;;;;26.24;41.93;101162.69;5076508;28;45338;-65
2021/09/26 00:53:01;;;;;;;;;10.50;9.50;;;;;26.24;42.40;101162.69;5078138;28;45465;-65
2021/09/26 00:55:27;;;;;;;;;8.25;8.25;;;;;26.24;42.13;101163.50;5082330;27;45567;-65
2021/09/26 00:57:52;;;;;;;;;9.25;9.25;;;;;26.14;41.77;101141.72;5076358;27;45467;-65
2021/09/26 01:00:20;;;;;;;;;9.25;8.50;;;;;26.25;42.51;101159.00;5075812;27;46302;-65
2021/09/26 01:02:45;;;;;;;;;9.50;9.50;;;;;26.24;42.21;101170.66;5076390;27;45612;-65
2021/09/26 01:05:13;;;;;;;;;11.00;9.50;;;;;26.25;42.39;101180.34;5073667;28;45430;-66
2021/09/26 01:08:06;;;;;;;;;10.00;9.00;;;;;26.24;42.16;101178.69;5075945;27;45352;-65
2021/09/26 01:10:46;;;;;;;;;8.00;8.00;;;;;26.24;42.08;101192.84;5075403;27;46044;-65
2021/09/26 01:13:39;;;;;;;;;10.75;10.50;;;;;26.24;42.47;101198.16;5075885;27;45274;-65
2021/09/26 01:16:37;;;;;;;;;12.25;9.75;;;;;26.23;42.16;101193.84;5076036;27;45422;-65
2021/09/26 01:19:18;;;;;;;;;10.50;10.50;;;;;26.23;42.44;101185.03;5074168;28;45481;-65
2021/09/26 01:21:46;;;;;;;;;11.25;8.50;;;;;26.22;42.13;101192.22;5075487;27;45371;-65
2021/09/26 01:24:46;;;;;;;;;10.75;8.25;;;;;26.23;42.45;101187.72;5075432;27;45563;-65
2021/09/26 01:27:35;;;;;;;;;8.00;8.00;;;;;26.22;42.28;101180.72;5063662;28;45532;-65
2021/09/26 01:30:20;;;;;;;;;7.25;7.00;;;;;26.21;42.18;101176.41;5061871;28;45479;-65
2021/09/26 01:33:01;;;;;;;;;10.25;9.75;;;;;26.21;42.37;101182.56;5059754;28;45301;-66
2021/09/26 01:35:28;;;;;;;;;11.00;9.00;;;;;26.09;42.28;101161.00;5073657;28;45478;-65
2021/09/26 01:38:08;;;;;;;;;9.00;8.00;;;;;26.12;42.29;101163.28;5076944;28;45447;-65
2021/09/26 01:40:49;;;;;;;;;9.50;9.50;;;;;26.20;42.27;101180.94;5075643;27;45502;-65
2021/09/26 01:43:18;;;;;;;;;8.00;8.00;;;;;26.21;42.66;101173.75;5075219;27;46356;-65
2021/09/26 01:45:51;;;;;;;;;8.00;8.00;;;;;26.21;42.16;101173.75;5075335;27;45468;-65
2021/09/26 01:48:38;;;;;;;;;10.25;10.25;;;;;26.20;42.23;101180.94;5075510;27;45483;-65
2021/09/26 01:51:04;;;;;;;;;9.25;9.00;;;;;26.20;42.44;101186.28;5061964;28;45528;-65
2021/09/26 01:53:31;;;;;;;;;10.00;8.00;;;;;26.22;42.45;101180.72;5075020;27;47179;-65
2021/09/26 01:55:58;;;;;;;;;8.25;8.25;;;;;26.14;42.41;101177.22;5075182;28;45543;-65
2021/09/26 01:58:25;;;;;;;;;8.50;8.50;;;;;26.23;42.50;101185.03;5073419;27;45403;-65
2021/09/26 02:00:50;;;;;;;;;11.25;10.25;;;;;26.22;42.27;101191.41;5075142;27;45508;-65
2021/09/26 02:03:20;;;;;;;;;8.50;8.50;;;;;26.22;42.33;101189.56;5075235;27;45410;-65
2021/09/26 02:05:46;;;;;;;;;11.50;11.25;;;;;26.21;42.21;101195.06;5058784;28;45804;-65
2021/09/26 02:08:13;;;;;;;;;8.25;7.00;;;;;26.22;42.46;101200.22;5072532;28;45307;-65
2021/09/26 02:10:41;;;;;;;;;10.00;10.00;;;;;26.22;42.22;101194.06;5074972;28;45508;-65
2021/09/26 02:13:08;;;;;;;;;11.00;9.50;;;;;26.18;42.17;101183.78;5074829;27;45443;-66
2021/09/26 02:15:34;;;;;;;;;10.75;10.75;;;;;26.22;42.51;101188.72;5074750;27;45331;-65
2021/09/26 02:18:02;;;;;;;;;9.25;9.25;;;;;26.22;42.26;101181.56;5075155;27;45346;-65
2021/09/26 02:20:29;;;;;;;;;10.25;8.25;;;;;26.16;42.30;101174.34;5075443;27;45461;-65
2021/09/26 02:22:57;;;;;;;;;8.00;8.00;;;;;26.12;42.32;101165.13;5074736;28;47066;-65
2021/09/26 02:25:23;;;;;;;;;9.00;8.25;;;;;26.23;42.56;101182.38;5064009;28;45430;-65
2021/09/26 02:27:49;;;;;;;;;8.00;8.00;;;;;26.22;42.50;101192.22;5066662;28;45348;-65
2021/09/26 02:30:15;;;;;;;;;9.00;8.25;;;;;26.10;42.53;101170.63;5070568;28;50241;-66
2021/09/26 02:32:42;;;;;;;;;8.25;8.25;;;;;26.22;42.53;101175.41;5058288;28;46054;-65
2021/09/26 02:35:08;;;;;;;;;10.00;8.50;;;;;26.22;42.28;101175.41;5056678;27;47041;-66
2021/09/26 02:37:34;;;;;;;;;9.75;8.00;;;;;26.21;42.09;101174.56;5057142;28;45414;-65
2021/09/26 02:40:00;;;;;;;;;8.00;8.00;;;;;26.14;42.54;101155.06;5058806;28;45489;-65
2021/09/26 02:42:56;;;;;;;;;8.50;8.50;;;;;26.21;42.25;101168.41;5061138;28;46128;-65
2021/09/26 02:45:45;;;;;;;;;11.25;10.00;;;;;26.20;42.11;101167.59;5069160;27;45254;-65
2021/09/26 02:48:13;;;;;;;;;9.00;9.00;;;;;26.19;42.25;101163.28;5058673;28;45280;-65
2021/09/26 02:50:42;;;;;;;;;10.25;9.00;;;;;26.20;42.35;101162.28;5057366;28;45564;-65
2021/09/26 02:53:09;;;;;;;;;7.75;7.75;;;;;26.20;42.37;101158.78;5056453;27;46177;-66
2021/09/26 02:55:36;;;;;;;;;9.75;9.75;;;;;26.19;42.48;101163.28;5058182;28;45461;-65
2021/09/26 02:58:02;;;;;;;;;9.50;8.25;;;;;26.10;42.42;101146.63;5058602;28;45474;-65
2021/09/26 03:00:36;;;;;;;;;11.00;10.00;;;;;26.16;42.35;101151.16;5058133;28;45498;-65
2021/09/26 03:03:13;;;;;;;;;7.00;7.00;;;;;26.19;42.36;101152.63;5058284;28;46096;-65
2021/09/26 03:05:42;;;;;;;;;8.75;8.75;;;;;26.19;42.28;101149.94;5056915;28;45402;-65
2021/09/26 03:08:08;;;;;;;;;9.00;9.00;;;;;26.19;42.44;101147.28;5071621;27;45390;-65
2021/09/26 03:10:35;;;;;;;;;7.50;7.50;;;;;26.20;42.27;101150.78;5074112;27;45489;-65
2021/09/26 03:13:01;;;;;;;;;8.50;8.25;;;;;26.20;42.65;101140.09;5073982;27;45599;-65
2021/09/26 03:15:27;;;;;;;;;10.00;9.00;;;;;26.20;42.45;101145.44;5071979;27;45466;-66
2021/09/26 03:17:52;;;;;;;;;10.00;10.00;;;;;26.22;42.23;101135.38;5073681;28;45409;-65
2021/09/26 03:20:17;;;;;;;;;10.75;8.75;;;;;26.20;42.38;101134.78;5075259;27;45380;-66
2021/09/26 03:22:43;;;;;;;;;9.00;9.00;;;;;26.13;42.49;101119.56;5072682;28;48245;-66
2021/09/26 03:25:09;;;;;;;;;8.25;7.00;;;;;26.18;42.33;101133.13;5073714;27;45366;-65
2021/09/26 03:27:34;;;;;;;;;7.25;7.25;;;;;26.21;42.22;101131.06;5074219;27;45551;-65
2021/09/26 03:29:59;;;;;;;;;9.50;8.50;;;;;26.20;42.49;101130.28;5074146;27;45326;-65
2021/09/26 03:32:25;;;;;;;;;8.00;7.00;;;;;26.20;42.08;101130.28;5074125;27;45496;-65
2021/09/26 03:34:50;;;;;;;;;9.50;8.50;;;;;26.07;42.42;101110.53;5074149;28;45383;-65
2021/09/26 03:37:15;;;;;;;;;9.50;9.50;;;;;26.20;42.23;101132.94;5073868;27;45306;-65
2021/09/26 03:39:41;;;;;;;;;8.75;8.75;;;;;26.21;42.07;101133.72;5073848;27;45372;-65
2021/09/26 03:42:06;;;;;;;;;8.00;8.00;;;;;26.20;41.92;101127.59;5073808;27;46316;-65
2021/09/26 03:44:33;;;;;;;;;10.75;9.75;;;;;26.21;42.21;101128.41;5073660;27;45845;-64
2021/09/26 03:46:59;;;;;;;;;7.75;7.75;;;;;26.21;42.36;101133.72;5075835;28;45322;-65
2021/09/26 03:49:24;;;;;;;;;9.00;9.00;;;;;26.21;42.29;101133.72;5073298;27;45449;-66
2021/09/26 03:51:50;;;;;;;;;9.00;8.00;;;;;26.09;42.39;101110.34;5073457;27;45465;-65
2021/09/26 03:54:16;;;;;;;;;7.25;7.25;;;;;26.20;42.27;101124.94;5072289;28;45408;-65
2021/09/26 03:56:42;;;;;;;;;11.25;9.75;;;;;26.20;42.38;101124.94;5072743;28;45461;-65
2021/09/26 03:59:07;;;;;;;;;8.00;8.00;;;;;26.21;42.31;101123.06;5075310;28;45390;-65
2021/09/26 04:01:32;;;;;;;;;9.75;9.75;;;;;26.19;42.45;101120.63;5070077;28;47014;-65
2021/09/26 04:03:58;;;;;;;;;7.50;7.00;;;;;26.16;42.60;101121.84;5067085;28;45471;-65
2021/09/26 04:06:23;;;;;;;;;9.00;9.00;;;;;26.20;42.21;101124.09;5073583;27;45456;-66
2021/09/26 04:08:48;;;;;;;;;10.00;9.75;;;;;26.19;42.17;101117.94;5073685;27;45451;-66
2021/09/26 04:11:14;;;;;;;;;10.00;9.75;;;;;26.20;42.38;101119.59;5075269;27;46305;-65
2021/09/26 04:13:39;;;;;;;;;12.00;8.25;;;;;26.20;42.58;101135.59;5073320;28;45476;-66
2021/09/26 04:16:05;;;;;;;;;8.00;7.50;;;;;26.18;42.26;101121.63;5073659;27;45454;-65
2021/09/26 04:18:30;;;;;;;;;9.00;8.00;;;;;26.19;42.29;101131.28;5085807;27;45469;-65
2021/09/26 04:20:56;;;;;;;;;8.00;8.00;;;;;26.19;42.39;101131.28;5073442;27;46452;-65
2021/09/26 04:23:21;;;;;;;;;8.00;8.00;;;;;26.15;42.43;101122.84;5070721;28;45425;-65
2021/09/26 04:25:47;;;;;;;;;11.50;8.75;;;;;26.14;41.99;101121.22;5073897;28;45349;-65
2021/09/26 04:28:12;;;;;;;;;7.75;7.75;;;;;26.18;42.44;101117.13;5075403;27;45489;-64
2021/09/26 04:30:38;;;;;;;;;6.50;6.50;;;;;26.12;42.27;101109.13;5076852;28;45515;-65
2021/09/26 04:33:04;;;;;;;;;7.00;7.00;;;;;26.17;42.39;101120.00;5075133;28;45430;-65
2021/09/26 04:35:30;;;;;;;;;8.75;8.75;;;;;26.12;42.18;101120.63;5077006;27;45345;-65
2021/09/26 04:37:57;;;;;;;;;8.25;7.75;;;;;26.18;42.34;101118.97;5078374;27;45648;-65
2021/09/26 04:40:23;;;;;;;;;8.25;8.25;;;;;26.18;42.25;101124.28;5076446;27;46213;-65
2021/09/26 04:42:49;;;;;;;;;8.75;8.75;;;;;26.19;42.52;101112.63;5076300;27;45469;-65
2021/09/26 04:45:14;;;;;;;;;7.00;6.00;;;;;26.16;42.30;101113.84;5076542;27;45315;-65
2021/09/26 04:47:40;;;;;;;;;11.25;9.50;;;;;26.18;42.30;101111.78;5076401;28;45526;-65
2021/09/26 04:50:06;;;;;;;;;8.75;7.50;;;;;26.18;42.45;101118.97;5078186;28;45445;-65
2021/09/26 04:52:34;;;;;;;;;8.75;8.75;;;;;26.19;42.25;101115.28;5076337;27;45535;-66
2021/09/26 04:55:00;;;;;;;;;8.50;7.50;;;;;26.15;42.08;101114.84;5076273;27;45340;-64
2021/09/26 04:57:26;;;;;;;;;9.75;8.50;;;;;26.16;42.01;101124.50;5076260;28;45347;-65
2021/09/26 04:59:51;;;;;;;;;9.75;7.75;;;;;26.18;42.41;101126.97;5076032;27;47145;-65
2021/09/26 05:02:16;;;;;;;;;8.00;8.00;;;;;26.18;42.29;101132.28;5077439;27;45514;-65
2021/09/26 05:04:42;;;;;;;;;7.25;7.25;;;;;26.18;42.32;101127.78;5076806;27;45378;-66
2021/09/26 05:07:07;;;;;;;;;9.00;9.00;;;;;26.18;42.45;101133.13;5073077;28;45655;-65
2021/09/26 05:09:33;;;;;;;;;6.50;6.50;;;;;26.20;42.22;101132.09;5075992;27;46036;-65
2021/09/26 05:11:58;;;;;;;;;8.00;8.00;;;;;26.18;42.38;101125.13;5074497;27;45524;-65
2021/09/26 05:14:24;;;;;;;;;8.00;8.00;;;;;26.18;42.45;101127.78;5077036;27;45837;-65
2021/09/26 05:16:49;;;;;;;;;8.50;8.50;;;;;26.12;42.47;101119.78;5076597;28;45454;-65
2021/09/26 05:19:15;;;;;;;;;8.25;8.25;;;;;26.18;42.22;101132.28;5075865;27;46889;-65
2021/09/26 05:21:40;;;;;;;;;9.50;8.50;;;;;26.20;42.46;101148.09;5075943;27;45549;-65
2021/09/26 05:24:05;;;;;;;;;8.75;8.50;;;;;26.20;42.45;101153.44;5076010;27;47361;-65
2021/09/26 05:26:31;;;;;;;;;8.00;8.00;;;;;26.12;42.21;101143.78;5075995;27;45333;-65
2021/09/26 05:28:56;;;;;;;;;8.00;8.00;;;;;26.21;42.33;101155.06;5077897;27;45521;-65
2021/09/26 05:31:22;;;;;;;;;9.25;9.25;;;;;26.21;42.40;101157.72;5075675;27;45265;-65
2021/09/26 05:33:47;;;;;;;;;8.00;7.00;;;;;26.21;42.33;101160.41;5075790;27;45463;-65
2021/09/26 05:36:12;;;;;;;;;9.00;9.00;;;;;26.20;42.28;101169.44;5075941;27;45435;-65
2021/09/26 05:38:38;;;;;;;;;9.75;9.75;;;;;26.21;42.40;101171.06;5075138;27;46278;-65
2021/09/26 05:41:03;;;;;;;;;9.50;8.25;;;;;26.21;42.31;101173.75;5077102;27;45492;-65
2021/09/26 05:43:29;;;;;;;;;8.25;8.25;;;;;26.20;42.59;101172.94;5075573;27;45361;-66
2021/09/26 05:45:54;;;;;;;;;8.00;8.00;;;;;26.21;42.45;101176.41;5075460;27;45262;-65
2021/09/26 05:48:19;;;;;;;;;8.75;7.00;;;;;26.20;42.55;101175.59;5075286;27;45526;-65
2021/09/26 05:50:45;;;;;;;;;9.50;9.50;;;;;26.16;42.63;101164.50;5074527;27;45279;-65
2021/09/26 05:53:10;;;;;;;;;7.00;7.00;;;;;26.20;42.44;101177.44;5077298;28;45299;-65
2021/09/26 05:55:35;;;;;;;;;8.00;8.00;;;;;26.21;42.59;101181.72;5075265;27;49770;-65
2021/09/26 05:58:01;;;;;;;;;8.75;6.75;;;;;26.20;42.39;101175.59;5075351;27;45480;-65
2021/09/26 06:00:26;;;;;;;;;11.25;10.00;;;;;26.20;42.21;101180.94;5074576;27;45511;-65
2021/09/26 06:02:52;;;;;;;;;9.00;7.00;;;;;26.20;42.66;101180.94;5075446;27;45576;-65
2021/09/26 06:05:18;;;;;;;;;8.75;7.75;;;;;26.19;42.21;101192.63;5077046;27;45454;-65
2021/09/26 06:07:44;;;;;;;;;4.75;4.75;;;;;26.20;42.75;101202.28;5073791;28;48908;-66
2021/09/26 06:10:10;;;;;;;;;7.75;7.75;;;;;26.20;42.14;101204.09;5073750;28;45456;-65
2021/09/26 06:12:36;;;;;;;;;8.25;7.25;;;;;26.19;42.45;101200.63;5074979;28;45516;-65
2021/09/26 06:15:03;;;;;;;;;7.50;7.50;;;;;26.18;42.47;101199.78;5074791;27;45462;-65
2021/09/26 06:17:30;;;;;;;;;7.75;7.75;;;;;26.19;42.30;101205.94;5075430;28;46694;-65
2021/09/26 06:19:55;;;;;;;;;8.25;7.25;;;;;26.19;42.30;101203.28;5076738;28;45586;-65
2021/09/26 06:22:24;;;;;;;;;8.25;8.25;;;;;26.17;42.43;101203.50;5074755;27;45378;-66
2021/09/26 06:24:50;;;;;;;;;8.25;8.25;;;;;26.18;42.47;101205.13;5074831;27;45511;-65
2021/09/26 06:27:15;;;;;;;;;7.25;6.75;;;;;26.18;42.62;101210.47;5074804;27;47229;-65
2021/09/26 06:29:40;;;;;;;;;9.00;9.00;;;;;26.18;42.29;101209.63;5073908;27;45320;-65
2021/09/26 06:32:07;;;;;;;;;6.75;6.50;;;;;26.19;42.44;101216.63;5075763;28;45432;-65
2021/09/26 06:34:32;;;;;;;;;7.75;7.00;;;;;26.13;42.43;101196.91;5074271;27;45550;-65
2021/09/26 06:36:58;;;;;;;;;7.25;7.25;;;;;25.90;42.82;101175.88;5071409;28;45483;-65
2021/09/26 06:39:24;;;;;;;;;8.00;8.00;;;;;26.18;42.58;101213.13;5074843;27;45403;-65
2021/09/26 06:41:50;;;;;;;;;8.75;7.75;;;;;26.19;42.38;101216.63;5090465;27;45401;-66
2021/09/26 06:44:15;;;;;;;;;10.00;10.00;;;;;26.17;42.51;101213.34;5076092;27;45498;-65
2021/09/26 06:46:40;;;;;;;;;6.75;6.75;;;;;26.18;42.47;101212.28;5074449;27;45431;-66
2021/09/26 06:49:06;;;;;;;;;9.50;8.00;;;;;26.19;42.43;101208.63;5071637;28;49084;-66
2021/09/26 06:51:32;;;;;;;;;6.50;6.50;;;;;26.17;42.26;101206.16;5074362;27;45347;-66
2021/09/26 06:53:58;;;;;;;;;7.50;7.50;;;;;26.20;42.11;101207.59;5074547;27;45362;-65
2021/09/26 06:56:23;;;;;;;;;8.50;8.25;;;;;26.18;42.21;101218.44;5075694;27;46046;-65
2021/09/26 06:58:48;;;;;;;;;9.00;6.75;;;;;26.18;42.32;101220.28;5074569;28;45540;-64
2021/09/26 07:01:14;;;;;;;;;7.75;7.75;;;;;26.19;42.37;101221.94;5074510;27;47733;-66
2021/09/26 07:03:39;;;;;;;;;9.25;9.25;;;;;26.18;42.52;101213.13;5074129;27;45389;-66
2021/09/26 07:06:04;;;;;;;;;9.25;9.25;;;;;26.17;42.36;101219.50;5074462;27;46971;-66
2021/09/26 07:08:31;;;;;;;;;8.75;8.75;;;;;26.18;42.34;101213.13;5075033;27;45566;-66
2021/09/26 07:10:56;;;;;;;;;6.50;6.50;;;;;26.18;42.83;101218.44;5073590;28;45316;-65
2021/09/26 07:13:21;;;;;;;;;6.25;6.25;;;;;26.18;42.54;101212.28;5073603;27;45292;-65
2021/09/26 07:15:47;;;;;;;;;6.00;6.00;;;;;26.16;42.46;101219.69;5073848;27;45275;-65
2021/09/26 07:18:12;;;;;;;;;7.00;6.25;;;;;26.16;42.38;101225.00;5074101;27;45480;-65
2021/09/26 07:20:37;;;;;;;;;10.25;8.00;;;;;26.19;42.50;101227.28;5074267;27;45278;-65
2021/09/26 07:23:03;;;;;;;;;8.25;6.75;;;;;26.19;42.58;101229.94;5075908;28;45311;-65
2021/09/26 07:25:29;;;;;;;;;6.00;6.00;;;;;26.18;42.50;101225.63;5073766;27;45431;-65
2021/09/26 07:27:57;;;;;;;;;8.00;7.25;;;;;26.18;42.50;101226.47;5073642;27;45538;-65
2021/09/26 07:30:22;;;;;;;;;9.00;8.00;;;;;26.18;42.17;101225.63;5074016;27;45959;-65
2021/09/26 07:32:49;;;;;;;;;7.25;7.25;;;;;26.13;42.49;101215.56;5074003;27;45371;-65
2021/09/26 07:35:14;;;;;;;;;9.50;9.00;;;;;26.17;42.11;101230.16;5075900;27;46211;-66
2021/09/26 07:37:40;;;;;;;;;7.25;7.25;;;;;26.17;42.48;101230.16;5073558;27;45493;-65
2021/09/26 07:40:07;;;;;;;;;7.75;7.50;;;;;26.13;42.84;101220.06;5073846;27;45392;-65
2021/09/26 07:42:32;;;;;;;;;8.25;8.25;;;;;26.17;42.55;101234.66;5073703;27;45510;-65
2021/09/26 07:45:02;;;;;;;;;9.00;7.00;;;;;26.16;42.32;101236.50;5073535;27;46070;-65
2021/09/26 07:47:28;;;;;;;;;7.00;7.00;;;;;26.15;42.42;101232.19;5074670;27;45403;-65
2021/09/26 07:49:53;;;;;;;;;8.00;7.50;;;;;26.16;42.64;101239.16;5073159;28;45436;-65
2021/09/26 07:52:19;;;;;;;;;7.00;7.00;;;;;26.07;42.68;101221.72;5073709;27;45442;-65
2021/09/26 07:54:44;;;;;;;;;7.50;7.50;;;;;26.17;42.82;101242.66;5073465;27;46211;-65
2021/09/26 07:57:10;;;;;;;;;7.75;6.00;;;;;26.17;42.87;101250.66;5073684;27;45469;-65
2021/09/26 07:59:35;;;;;;;;;6.50;6.50;;;;;26.10;42.33;101233.81;5073670;27;45432;-65
2021/09/26 08:02:00;;;;;;;;;6.00;6.00;;;;;26.16;42.18;101249.84;5075583;28;45429;-65
2021/09/26 08:04:26;;;;;;;;;8.00;7.75;;;;;26.17;42.53;101243.50;5076980;27;45561;-65
2021/09/26 08:06:51;;;;;;;;;7.00;7.00;;;;;26.17;42.77;101248.81;5076950;27;45473;-66
2021/09/26 08:09:16;;;;;;;;;7.25;7.25;;;;;26.17;42.76;101248.81;5077047;27;45268;-65
2021/09/26 08:11:42;;;;;;;;;6.25;6.25;;;;;26.17;42.70;101250.66;5077261;27;45265;-65
2021/09/26 08:14:07;;;;;;;;;9.50;7.75;;;;;26.18;42.57;101244.28;5078598;28;46060;-65
2021/09/26 08:16:32;;;;;;;;;8.00;7.00;;;;;26.18;42.58;101246.97;5076976;27;45231;-65
2021/09/26 08:18:58;;;;;;;;;7.00;7.00;;;;;26.12;42.49;101242.44;5077166;27;45485;-65
2021/09/26 08:21:23;;;;;;;;;8.00;8.00;;;;;26.17;42.34;101261.34;5076870;27;45493;-65
2021/09/26 08:23:48;;;;;;;;;6.75;6.50;;;;;26.19;42.46;101264.63;5076436;27;46968;-65
2021/09/26 08:26:14;;;;;;;;;8.00;7.75;;;;;26.19;42.67;101267.28;5078665;27;45220;-65
2021/09/26 08:28:39;;;;;;;;;8.00;7.00;;;;;26.13;42.46;101257.41;5075215;27;45482;-65
2021/09/26 08:31:06;;;;;;;;;7.00;6.00;;;;;26.19;42.60;101269.94;5076684;27;45414;-65
2021/09/26 08:33:31;;;;;;;;;6.00;6.00;;;;;26.19;42.67;101269.94;5076454;27;46990;-65
2021/09/26 08:35:56;;;;;;;;;6.25;6.25;;;;;26.15;42.43;101266.06;5076635;27;45442;-65
2021/09/26 08:38:22;;;;;;;;;9.00;7.75;;;;;26.18;42.77;101274.47;5077742;27;45364;-65
2021/09/26 08:40:51;;;;;;;;;7.75;7.00;;;;;26.19;42.36;101275.28;5077231;27;46286;-65
2021/09/26 08:43:20;;;;;;;;;6.75;6.75;;;;;26.19;42.57;101277.94;5076522;28;45500;-65
2021/09/26 08:45:47;;;;;;;;;6.50;6.25;;;;;26.11;42.69;101265.59;5076270;27;45372;-65
2021/09/26 08:48:12;;;;;;;;;6.00;6.00;;;;;26.18;42.60;101279.78;5076685;27;45349;-65
2021/09/26 08:50:38;;;;;;;;;7.75;7.75;;;;;26.18;42.43;101278.97;5076575;27;45402;-65
2021/09/26 08:53:06;;;;;;;;;7.25;7.00;;;;;26.17;42.63;101278.16;5077863;27;45368;-65
2021/09/26 08:55:33;;;;;;;;;6.50;6.50;;;;;26.10;42.82;101257.81;5076067;27;45263;-65
2021/09/26 08:57:59;;;;;;;;;5.75;5.75;;;;;26.14;42.69;101262.56;5076345;27;45367;-64
2021/09/26 09:00:28;;;;;;;;;9.00;9.00;;;;;26.10;42.37;101258.63;5076028;27;45474;-65
2021/09/26 09:02:54;;;;;;;;;6.50;5.25;;;;;26.17;42.61;101270.16;5076192;27;46415;-65
2021/09/26 09:05:42;;;;;;;;;6.50;6.50;;;;;26.19;42.61;101280.63;5077546;27;45417;-65
2021/09/26 09:08:12;;;;;;;;;6.00;6.00;;;;;26.19;42.36;101275.28;5077106;28;45296;-65
2021/09/26 09:10:41;;;;;;;;;7.50;7.25;;;;;26.17;42.52;101275.50;5075342;27;45712;-65
2021/09/26 09:13:10;;;;;;;;;6.75;6.75;;;;;26.12;42.77;101261.94;5075722;27;46279;-65
2021/09/26 09:15:36;;;;;;;;;8.00;7.00;;;;;26.18;42.65;101270.97;5074789;27;45358;-65
2021/09/26 09:18:03;;;;;;;;;5.75;5.75;;;;;26.18;42.85;101269.13;5076274;27;45455;-65
2021/09/26 09:20:31;;;;;;;;;9.00;9.00;;;;;26.16;42.66;101267.69;5076329;27;45351;-65
2021/09/26 09:23:10;;;;;;;;;8.75;7.75;;;;;26.20;42.66;101270.78;5075060;28;45986;-65
2021/09/26 09:25:36;;;;;;;;;6.25;4.50;;;;;26.21;42.64;101267.06;5075786;27;45528;-65
2021/09/26 09:28:04;;;;;;;;;8.75;8.00;;;;;26.22;42.57;101280.22;5076056;27;45886;-65
2021/09/26 09:30:35;;;;;;;;;7.00;7.00;;;;;26.18;42.22;101261.13;5075719;27;45555;-65
2021/09/26 09:33:01;;;;;;;;;5.00;5.00;;;;;26.22;42.44;101269.56;5075659;27;46204;-65
2021/09/26 09:35:29;;;;;;;;;7.00;7.00;;;;;26.22;42.22;101264.22;5076462;27;45640;-65
2021/09/26 09:37:55;;;;;;;;;6.00;6.00;;;;;26.24;42.54;101258.69;5076949;28;45405;-65
2021/09/26 09:40:21;;;;;;;;;6.25;6.25;;;;;26.24;42.37;101264.03;5075577;27;45412;-65
2021/09/26 09:42:49;;;;;;;;;6.00;6.00;;;;;26.24;42.27;101259.50;5075388;27;45501;-65
2021/09/26 09:45:25;;;;;;;;;6.25;6.00;;;;;26.25;42.54;101268.34;5073608;27;45403;-65
2021/09/26 09:48:00;;;;;;;;;6.25;4.75;;;;;26.26;42.55;101259.31;5059828;28;45457;-65
2021/09/26 09:50:58;;;;;;;;;5.75;5.50;;;;;26.26;42.59;101269.97;5076323;27;45272;-65
2021/09/26 09:53:41;;;;;;;;;6.00;6.00;;;;;26.26;42.58;101267.31;5073429;28;47145;-65
2021/09/26 09:56:06;;;;;;;;;7.50;7.00;;;;;26.26;42.53;101269.97;5076434;28;45398;-65
2021/09/26 09:58:41;;;;;;;;;9.00;7.75;;;;;26.27;42.70;101271.63;5075381;27;45342;-65
2021/09/26 10:01:09;;;;;;;;;7.75;7.75;;;;;26.27;42.33;101266.28;5075298;27;45322;-65
2021/09/26 10:03:37;;;;;;;;;7.00;6.75;;;;;26.26;42.94;101270.78;5074886;27;47031;-65
2021/09/26 10:06:35;;;;;;;;;6.25;6.25;;;;;26.26;42.68;101264.63;5074827;27;45291;-65
2021/09/26 10:09:16;;;;;;;;;6.25;6.25;;;;;26.27;42.58;101268.97;5059718;28;45415;-65
2021/09/26 10:11:55;;;;;;;;;9.00;6.25;;;;;26.22;42.31;101258.06;5074995;27;45390;-65
2021/09/26 10:14:23;;;;;;;;;7.25;7.00;;;;;26.26;42.32;101268.13;5072729;28;46156;-65
2021/09/26 10:16:50;;;;;;;;;7.50;7.50;;;;;26.25;42.33;101266.50;5075837;28;45248;-65
2021/09/26 10:19:20;;;;;;;;;6.50;6.50;;;;;26.22;42.52;101264.22;5074890;27;45387;-65
2021/09/26 10:21:48;;;;;;;;;8.00;8.00;;;;;26.25;42.65;101273.69;5074589;27;45348;-66
2021/09/26 10:24:14;;;;;;;;;8.00;7.75;;;;;26.19;42.67;101269.94;5073084;27;46130;-65
2021/09/26 10:26:40;;;;;;;;;8.75;8.50;;;;;26.24;42.76;101270.19;5072997;28;45434;-65
2021/09/26 10:29:08;;;;;;;;;7.25;6.00;;;;;26.24;42.54;101270.19;5076789;28;45348;-65
2021/09/26 10:31:34;;;;;;;;;8.00;8.00;;;;;26.25;42.99;101268.34;5074660;27;45498;-65
2021/09/26 10:34:01;;;;;;;;;7.00;6.00;;;;;26.24;42.73;101272.84;5074701;27;45466;-65
2021/09/26 10:36:28;;;;;;;;;5.00;5.00;;;;;26.25;42.88;101266.50;5074167;27;45390;-65
2021/09/26 10:38:54;;;;;;;;;7.25;7.25;;;;;26.26;42.72;101265.47;5074831;27;45568;-65
2021/09/26 10:41:20;;;;;;;;;7.00;7.00;;;;;26.26;42.39;101273.47;5072044;28;45450;-65
2021/09/26 10:43:47;;;;;;;;;5.25;5.25;;;;;26.26;42.31;101268.13;5073661;28;46070;-65
2021/09/26 10:46:28;;;;;;;;;7.00;7.00;;;;;26.28;42.68;101273.28;5074121;27;45472;-65
2021/09/26 10:48:56;;;;;;;;;6.25;6.25;;;;;26.28;42.62;101271.41;5074173;28;45327;-65
2021/09/26 10:52:06;;;;;;;;;7.25;6.50;;;;;26.28;42.60;101276.75;5074406;27;45400;-66
2021/09/26 10:54:36;;;;;;;;;6.25;5.50;;;;;26.29;43.07;101266.91;5013015;28;45595;-65
2021/09/26 10:57:04;;;;;;;;;7.00;7.00;;;;;26.29;42.71;101269.56;5009966;28;45524;-65
2021/09/26 10:59:56;;;;;;;;;7.50;7.50;;;;;26.29;42.55;101264.25;5011073;28;45321;-65
2021/09/26 11:02:27;;;;;;;;;8.00;8.00;;;;;26.29;42.76;101259.75;5010388;28;45452;-65
2021/09/26 11:04:58;;;;;;;;;6.25;6.25;;;;;26.30;42.81;101260.56;4999904;28;47540;-65
2021/09/26 11:07:31;;;;;;;;;6.25;5.50;;;;;26.29;42.87;101267.75;5007946;28;45367;-65
2021/09/26 11:10:03;;;;;;;;;5.50;5.00;;;;;26.28;42.81;101258.06;5007321;28;45445;-65
2021/09/26 11:12:43;;;;;;;;;5.00;5.00;;;;;26.28;42.66;101255.41;4992198;28;45336;-65
2021/09/26 11:15:10;;;;;;;;;6.25;5.50;;;;;26.20;42.53;101242.28;4995957;28;46075;-65
2021/09/26 11:17:54;;;;;;;;;5.75;5.50;;;;;26.26;42.47;101251.28;5011710;28;45612;-65
2021/09/26 11:20:25;;;;;;;;;5.00;4.50;;;;;26.28;42.67;101249.28;5013106;28;45279;-65
2021/09/26 11:23:05;;;;;;;;;6.50;6.25;;;;;26.27;42.81;101252.97;5008004;28;45410;-65
2021/09/26 11:26:03;;;;;;;;;8.50;7.75;;;;;26.26;42.89;101249.47;5012532;28;45550;-65
2021/09/26 11:28:38;;;;;;;;;7.00;7.00;;;;;26.27;42.97;101255.63;5006969;28;45360;-65
2021/09/26 11:31:09;;;;;;;;;7.00;7.00;;;;;26.26;42.69;101254.78;5035006;28;45408;-65